100LL.CA
Aviation Fuel Pricing for Canadians
Please upgrade your browser - Tested with IE9, FireFox, Chrome, Safari

Fuel Airports Other Help
Prices Economy Info List METAR/TAF Kneeboard Help

Reference Airport: FREDERICTON INTL, NB
N 45 52 08  W 066 32 14
Provinces to show:

CYFC FREDERICTON INTL, NB
WEATHER
METARCYFC 131848Z AUTO 22008KT 5SM RA BR SCT020 BKN027 BKN038 OVC050 11/10 A2944 RMK PCPN 2.0MM PAST HR SLP972
TAFTAF CYFC 131740Z 1318/1406 17010KT P6SM BKN040 TEMPO 1318/1323 4SM -SHRA BR BKN020 BKN040 FM132300 17010KT P6SM SCT008 OVC015 TEMPO 1323/1406 P6SM -SHRA BKN008 OVC015 RMK FCST BASED ON AUTO OBS. NXT FCST BY 140000Z
OTHER SITES

FlightAware

FltPlan

Google Maps

SkyVector
FUEL
FBO 100LL
member
100LL
public
JETA MOGAS
Capital Airways (2022-05-31)3.2702.687
  Note: Fuel Available 0800-1800 LCL $150 Call-out charge outside these hours.
Canada Flight Supplement - CYFC
(opens in new tab/window)


Please Send Updates!

Desktop Version ]  [ Mobile Version ]  [ Disclaimer ]